sensor_id;sensor_type;location;lat;lon;timestamp;pressure;altitude;pressure_sealevel;temperature
45850;BMP180;10739;52.198;20.908;2022-07-23T00:01:23;100356.00;;;26.30
45850;BMP180;10739;52.198;20.908;2022-07-23T00:03:50;100360.00;;;26.30
45850;BMP180;10739;52.198;20.908;2022-07-23T00:06:17;100345.00;;;26.30
45850;BMP180;10739;52.198;20.908;2022-07-23T00:08:44;100353.00;;;26.30
45850;BMP180;10739;52.198;20.908;2022-07-23T00:11:10;100355.00;;;26.20
45850;BMP180;10739;52.198;20.908;2022-07-23T00:13:36;100348.00;;;26.20
45850;BMP180;10739;52.198;20.908;2022-07-23T00:16:02;100358.00;;;26.20
45850;BMP180;10739;52.198;20.908;2022-07-23T00:18:29;100359.00;;;26.20
45850;BMP180;10739;52.198;20.908;2022-07-23T00:20:55;100352.00;;;26.20
45850;BMP180;10739;52.198;20.908;2022-07-23T00:23:22;100350.00;;;26.10
45850;BMP180;10739;52.198;20.908;2022-07-23T00:25:48;100356.00;;;26.10
45850;BMP180;10739;52.198;20.908;2022-07-23T00:28:14;100350.00;;;26.10
45850;BMP180;10739;52.198;20.908;2022-07-23T00:30:40;100352.00;;;26.00
45850;BMP180;10739;52.198;20.908;2022-07-23T00:33:07;100357.00;;;26.00
45850;BMP180;10739;52.198;20.908;2022-07-23T00:35:38;100363.00;;;26.00
45850;BMP180;10739;52.198;20.908;2022-07-23T00:38:10;100351.00;;;26.00
45850;BMP180;10739;52.198;20.908;2022-07-23T00:40:38;100357.00;;;25.90
45850;BMP180;10739;52.198;20.908;2022-07-23T00:43:05;100354.00;;;25.90
45850;BMP180;10739;52.198;20.908;2022-07-23T00:45:32;100351.00;;;25.80
45850;BMP180;10739;52.198;20.908;2022-07-23T00:47:58;100345.00;;;25.80
45850;BMP180;10739;52.198;20.908;2022-07-23T00:50:25;100346.00;;;25.80
45850;BMP180;10739;52.198;20.908;2022-07-23T00:52:52;100353.00;;;25.80
45850;BMP180;10739;52.198;20.908;2022-07-23T00:55:18;100350.00;;;25.80
45850;BMP180;10739;52.198;20.908;2022-07-23T00:57:44;100358.00;;;25.70
45850;BMP180;10739;52.198;20.908;2022-07-23T01:00:14;100354.00;;;25.70
45850;BMP180;10739;52.198;20.908;2022-07-23T01:02:41;100349.00;;;25.70
45850;BMP180;10739;52.198;20.908;2022-07-23T01:05:09;100352.00;;;25.70
45850;BMP180;10739;52.198;20.908;2022-07-23T01:07:36;100354.00;;;25.70
45850;BMP180;10739;52.198;20.908;2022-07-23T01:10:04;100356.00;;;25.70
45850;BMP180;10739;52.198;20.908;2022-07-23T01:12:50;100356.00;;;25.60
45850;BMP180;10739;52.198;20.908;2022-07-23T01:15:16;100359.00;;;25.60
45850;BMP180;10739;52.198;20.908;2022-07-23T01:17:42;100356.00;;;25.60
45850;BMP180;10739;52.198;20.908;2022-07-23T01:20:09;100358.00;;;25.60
45850;BMP180;10739;52.198;20.908;2022-07-23T01:22:35;100369.00;;;25.50
45850;BMP180;10739;52.198;20.908;2022-07-23T01:25:01;100363.00;;;25.50
45850;BMP180;10739;52.198;20.908;2022-07-23T01:27:28;100359.00;;;25.40
45850;BMP180;10739;52.198;20.908;2022-07-23T01:29:56;100365.00;;;25.40
45850;BMP180;10739;52.198;20.908;2022-07-23T01:32:23;100365.00;;;25.40
45850;BMP180;10739;52.198;20.908;2022-07-23T01:34:49;100361.00;;;25.40
45850;BMP180;10739;52.198;20.908;2022-07-23T01:37:15;100361.00;;;25.40
45850;BMP180;10739;52.198;20.908;2022-07-23T01:39:41;100359.00;;;25.30
45850;BMP180;10739;52.198;20.908;2022-07-23T01:42:07;100362.00;;;25.20
45850;BMP180;10739;52.198;20.908;2022-07-23T01:44:34;100364.00;;;25.30
45850;BMP180;10739;52.198;20.908;2022-07-23T01:47:00;100362.00;;;25.20
45850;BMP180;10739;52.198;20.908;2022-07-23T01:49:26;100368.00;;;25.20
45850;BMP180;10739;52.198;20.908;2022-07-23T01:51:52;100365.00;;;25.10
45850;BMP180;10739;52.198;20.908;2022-07-23T01:54:30;100370.00;;;25.00
45850;BMP180;10739;52.198;20.908;2022-07-23T01:56:57;100361.00;;;25.10
45850;BMP180;10739;52.198;20.908;2022-07-23T01:59:24;100365.00;;;25.00
45850;BMP180;10739;52.198;20.908;2022-07-23T02:01:52;100362.00;;;24.90
45850;BMP180;10739;52.198;20.908;2022-07-23T02:04:20;100356.00;;;25.00
45850;BMP180;10739;52.198;20.908;2022-07-23T02:06:48;100361.00;;;25.00
45850;BMP180;10739;52.198;20.908;2022-07-23T02:09:14;100350.00;;;25.00
45850;BMP180;10739;52.198;20.908;2022-07-23T02:11:41;100357.00;;;25.00
45850;BMP180;10739;52.198;20.908;2022-07-23T02:14:07;100349.00;;;25.10
45850;BMP180;10739;52.198;20.908;2022-07-23T02:16:34;100343.00;;;25.10
45850;BMP180;10739;52.198;20.908;2022-07-23T02:19:01;100358.00;;;25.00
45850;BMP180;10739;52.198;20.908;2022-07-23T02:21:27;100346.00;;;25.00
45850;BMP180;10739;52.198;20.908;2022-07-23T02:23:54;100351.00;;;24.90
45850;BMP180;10739;52.198;20.908;2022-07-23T02:26:20;100354.00;;;24.80
45850;BMP180;10739;52.198;20.908;2022-07-23T02:28:46;100348.00;;;24.70
45850;BMP180;10739;52.198;20.908;2022-07-23T02:31:12;100344.00;;;24.70
45850;BMP180;10739;52.198;20.908;2022-07-23T02:33:39;100338.00;;;24.70
45850;BMP180;10739;52.198;20.908;2022-07-23T02:36:05;100347.00;;;24.70
45850;BMP180;10739;52.198;20.908;2022-07-23T02:38:32;100331.00;;;24.60
45850;BMP180;10739;52.198;20.908;2022-07-23T02:40:58;100333.00;;;24.50
45850;BMP180;10739;52.198;20.908;2022-07-23T02:43:24;100325.00;;;24.50
45850;BMP180;10739;52.198;20.908;2022-07-23T02:45:50;100335.00;;;24.40
45850;BMP180;10739;52.198;20.908;2022-07-23T02:48:17;100330.00;;;24.50
45850;BMP180;10739;52.198;20.908;2022-07-23T02:50:43;100330.00;;;24.70
45850;BMP180;10739;52.198;20.908;2022-07-23T02:53:09;100331.00;;;24.60
45850;BMP180;10739;52.198;20.908;2022-07-23T02:55:35;100330.00;;;24.70
45850;BMP180;10739;52.198;20.908;2022-07-23T02:58:02;100335.00;;;24.60
45850;BMP180;10739;52.198;20.908;2022-07-23T03:00:28;100325.00;;;24.60
45850;BMP180;10739;52.198;20.908;2022-07-23T03:02:54;100325.00;;;24.50
45850;BMP180;10739;52.198;20.908;2022-07-23T03:05:20;100323.00;;;24.50
45850;BMP180;10739;52.198;20.908;2022-07-23T03:07:47;100323.00;;;24.50
45850;BMP180;10739;52.198;20.908;2022-07-23T03:10:13;100321.00;;;24.40
45850;BMP180;10739;52.198;20.908;2022-07-23T03:12:39;100323.00;;;24.40
45850;BMP180;10739;52.198;20.908;2022-07-23T03:15:06;100314.00;;;24.40
45850;BMP180;10739;52.198;20.908;2022-07-23T03:17:32;100332.00;;;24.20
45850;BMP180;10739;52.198;20.908;2022-07-23T03:19:59;100325.00;;;24.20
45850;BMP180;10739;52.198;20.908;2022-07-23T03:22:25;100334.00;;;24.40
45850;BMP180;10739;52.198;20.908;2022-07-23T03:24:51;100335.00;;;24.20
45850;BMP180;10739;52.198;20.908;2022-07-23T03:27:23;100331.00;;;24.00
45850;BMP180;10739;52.198;20.908;2022-07-23T03:29:54;100330.00;;;24.10
45850;BMP180;10739;52.198;20.908;2022-07-23T03:32:22;100333.00;;;24.20
45850;BMP180;10739;52.198;20.908;2022-07-23T03:34:49;100335.00;;;24.00
45850;BMP180;10739;52.198;20.908;2022-07-23T03:37:16;100325.00;;;23.90
45850;BMP180;10739;52.198;20.908;2022-07-23T03:39:42;100325.00;;;23.80
45850;BMP180;10739;52.198;20.908;2022-07-23T03:42:09;100336.00;;;24.00
45850;BMP180;10739;52.198;20.908;2022-07-23T03:44:35;100341.00;;;24.00
45850;BMP180;10739;52.198;20.908;2022-07-23T03:47:06;100350.00;;;24.10
45850;BMP180;10739;52.198;20.908;2022-07-23T03:49:34;100344.00;;;24.00
45850;BMP180;10739;52.198;20.908;2022-07-23T03:52:01;100336.00;;;24.20
45850;BMP180;10739;52.198;20.908;2022-07-23T03:54:27;100349.00;;;24.20
45850;BMP180;10739;52.198;20.908;2022-07-23T03:56:53;100345.00;;;24.30
45850;BMP180;10739;52.198;20.908;2022-07-23T03:59:19;100346.00;;;23.90
45850;BMP180;10739;52.198;20.908;2022-07-23T04:01:45;100353.00;;;24.00
45850;BMP180;10739;52.198;20.908;2022-07-23T04:04:11;100343.00;;;23.90
45850;BMP180;10739;52.198;20.908;2022-07-23T04:06:37;100349.00;;;23.70
45850;BMP180;10739;52.198;20.908;2022-07-23T04:09:04;100341.00;;;23.90
45850;BMP180;10739;52.198;20.908;2022-07-23T04:11:30;100350.00;;;23.90
45850;BMP180;10739;52.198;20.908;2022-07-23T04:13:57;100346.00;;;24.10
45850;BMP180;10739;52.198;20.908;2022-07-23T04:16:23;100338.00;;;24.20
45850;BMP180;10739;52.198;20.908;2022-07-23T04:18:49;100346.00;;;24.30
45850;BMP180;10739;52.198;20.908;2022-07-23T04:21:15;100342.00;;;24.50
45850;BMP180;10739;52.198;20.908;2022-07-23T04:23:41;100335.00;;;24.80
45850;BMP180;10739;52.198;20.908;2022-07-23T04:26:08;100343.00;;;25.00
45850;BMP180;10739;52.198;20.908;2022-07-23T04:28:34;100348.00;;;24.90
45850;BMP180;10739;52.198;20.908;2022-07-23T04:30:59;100347.00;;;25.10
45850;BMP180;10739;52.198;20.908;2022-07-23T04:33:26;100339.00;;;25.20
45850;BMP180;10739;52.198;20.908;2022-07-23T04:35:52;100341.00;;;25.10
45850;BMP180;10739;52.198;20.908;2022-07-23T04:38:19;100339.00;;;25.20
45850;BMP180;10739;52.198;20.908;2022-07-23T04:40:45;100335.00;;;25.30
45850;BMP180;10739;52.198;20.908;2022-07-23T04:43:11;100344.00;;;25.50
45850;BMP180;10739;52.198;20.908;2022-07-23T04:45:37;100332.00;;;25.30
45850;BMP180;10739;52.198;20.908;2022-07-23T04:48:04;100332.00;;;25.30
45850;BMP180;10739;52.198;20.908;2022-07-23T04:50:30;100336.00;;;25.50
45850;BMP180;10739;52.198;20.908;2022-07-23T04:52:56;100337.00;;;25.70
45850;BMP180;10739;52.198;20.908;2022-07-23T04:55:23;100343.00;;;25.70
45850;BMP180;10739;52.198;20.908;2022-07-23T04:57:49;100340.00;;;25.50
45850;BMP180;10739;52.198;20.908;2022-07-23T05:00:16;100342.00;;;25.70
45850;BMP180;10739;52.198;20.908;2022-07-23T05:02:43;100349.00;;;25.60
45850;BMP180;10739;52.198;20.908;2022-07-23T05:05:09;100346.00;;;25.90
45850;BMP180;10739;52.198;20.908;2022-07-23T05:07:35;100347.00;;;25.80
45850;BMP180;10739;52.198;20.908;2022-07-23T05:10:01;100347.00;;;26.20
45850;BMP180;10739;52.198;20.908;2022-07-23T05:12:27;100345.00;;;26.40
45850;BMP180;10739;52.198;20.908;2022-07-23T05:14:54;100343.00;;;26.50
45850;BMP180;10739;52.198;20.908;2022-07-23T05:17:20;100341.00;;;26.60
45850;BMP180;10739;52.198;20.908;2022-07-23T05:19:46;100342.00;;;26.40
45850;BMP180;10739;52.198;20.908;2022-07-23T05:22:12;100337.00;;;26.70
45850;BMP180;10739;52.198;20.908;2022-07-23T05:24:38;100344.00;;;26.90
45850;BMP180;10739;52.198;20.908;2022-07-23T05:27:04;100339.00;;;26.60
45850;BMP180;10739;52.198;20.908;2022-07-23T05:29:30;100342.00;;;26.80
45850;BMP180;10739;52.198;20.908;2022-07-23T05:31:56;100342.00;;;27.00
45850;BMP180;10739;52.198;20.908;2022-07-23T05:34:23;100350.00;;;27.00
45850;BMP180;10739;52.198;20.908;2022-07-23T05:36:49;100335.00;;;27.30
45850;BMP180;10739;52.198;20.908;2022-07-23T05:39:15;100335.00;;;27.40
45850;BMP180;10739;52.198;20.908;2022-07-23T05:41:41;100335.00;;;27.30
45850;BMP180;10739;52.198;20.908;2022-07-23T05:44:07;100335.00;;;27.50
45850;BMP180;10739;52.198;20.908;2022-07-23T05:46:33;100326.00;;;27.70
45850;BMP180;10739;52.198;20.908;2022-07-23T05:48:59;100324.00;;;27.80
45850;BMP180;10739;52.198;20.908;2022-07-23T05:51:26;100332.00;;;27.90
45850;BMP180;10739;52.198;20.908;2022-07-23T05:53:52;100335.00;;;27.80
45850;BMP180;10739;52.198;20.908;2022-07-23T05:56:18;100325.00;;;27.90
45850;BMP180;10739;52.198;20.908;2022-07-23T05:58:45;100334.00;;;28.10
45850;BMP180;10739;52.198;20.908;2022-07-23T06:01:11;100330.00;;;28.20
45850;BMP180;10739;52.198;20.908;2022-07-23T06:03:38;100325.00;;;28.40
45850;BMP180;10739;52.198;20.908;2022-07-23T06:06:05;100335.00;;;28.20
45850;BMP180;10739;52.198;20.908;2022-07-23T06:08:32;100336.00;;;28.10
45850;BMP180;10739;52.198;20.908;2022-07-23T06:10:58;100333.00;;;28.30
45850;BMP180;10739;52.198;20.908;2022-07-23T06:13:24;100330.00;;;28.50
45850;BMP180;10739;52.198;20.908;2022-07-23T06:15:50;100331.00;;;28.80
45850;BMP180;10739;52.198;20.908;2022-07-23T06:18:17;100333.00;;;28.90
45850;BMP180;10739;52.198;20.908;2022-07-23T06:20:43;100331.00;;;28.50
45850;BMP180;10739;52.198;20.908;2022-07-23T06:23:09;100333.00;;;28.80
45850;BMP180;10739;52.198;20.908;2022-07-23T06:25:36;100332.00;;;28.90
45850;BMP180;10739;52.198;20.908;2022-07-23T06:28:02;100331.00;;;28.90
45850;BMP180;10739;52.198;20.908;2022-07-23T06:30:28;100326.00;;;28.90
45850;BMP180;10739;52.198;20.908;2022-07-23T06:32:54;100330.00;;;28.90
45850;BMP180;10739;52.198;20.908;2022-07-23T06:35:21;100332.00;;;29.00
45850;BMP180;10739;52.198;20.908;2022-07-23T06:37:47;100335.00;;;29.30
45850;BMP180;10739;52.198;20.908;2022-07-23T06:40:13;100331.00;;;28.70
45850;BMP180;10739;52.198;20.908;2022-07-23T06:42:40;100333.00;;;29.10
45850;BMP180;10739;52.198;20.908;2022-07-23T06:45:07;100338.00;;;29.00
45850;BMP180;10739;52.198;20.908;2022-07-23T06:47:34;100338.00;;;29.10
45850;BMP180;10739;52.198;20.908;2022-07-23T06:50:00;100335.00;;;29.20
45850;BMP180;10739;52.198;20.908;2022-07-23T06:52:26;100338.00;;;29.30
45850;BMP180;10739;52.198;20.908;2022-07-23T06:54:53;100332.00;;;29.30
45850;BMP180;10739;52.198;20.908;2022-07-23T06:57:19;100330.00;;;29.00
45850;BMP180;10739;52.198;20.908;2022-07-23T06:59:45;100323.00;;;29.50
45850;BMP180;10739;52.198;20.908;2022-07-23T07:02:12;100323.00;;;29.60
45850;BMP180;10739;52.198;20.908;2022-07-23T07:04:38;100322.00;;;29.70
45850;BMP180;10739;52.198;20.908;2022-07-23T07:07:04;100308.00;;;30.00
45850;BMP180;10739;52.198;20.908;2022-07-23T07:09:30;100313.00;;;30.00
45850;BMP180;10739;52.198;20.908;2022-07-23T07:11:56;100320.00;;;29.90
45850;BMP180;10739;52.198;20.908;2022-07-23T07:14:23;100317.00;;;30.50
45850;BMP180;10739;52.198;20.908;2022-07-23T07:16:49;100312.00;;;30.50
45850;BMP180;10739;52.198;20.908;2022-07-23T07:19:15;100314.00;;;30.40
45850;BMP180;10739;52.198;20.908;2022-07-23T07:21:41;100315.00;;;30.60
45850;BMP180;10739;52.198;20.908;2022-07-23T07:24:08;100309.00;;;31.00
45850;BMP180;10739;52.198;20.908;2022-07-23T07:26:34;100314.00;;;31.00
45850;BMP180;10739;52.198;20.908;2022-07-23T07:29:00;100300.00;;;31.10
45850;BMP180;10739;52.198;20.908;2022-07-23T07:31:27;100299.00;;;31.20
45850;BMP180;10739;52.198;20.908;2022-07-23T07:33:53;100300.00;;;31.10
45850;BMP180;10739;52.198;20.908;2022-07-23T07:36:19;100302.00;;;31.20
45850;BMP180;10739;52.198;20.908;2022-07-23T07:38:45;100303.00;;;31.60
45850;BMP180;10739;52.198;20.908;2022-07-23T07:41:12;100310.00;;;32.00
45850;BMP180;10739;52.198;20.908;2022-07-23T07:43:39;100307.00;;;32.10
45850;BMP180;10739;52.198;20.908;2022-07-23T07:46:05;100306.00;;;32.00
45850;BMP180;10739;52.198;20.908;2022-07-23T07:48:37;100300.00;;;32.50
45850;BMP180;10739;52.198;20.908;2022-07-23T07:51:05;100307.00;;;32.50
45850;BMP180;10739;52.198;20.908;2022-07-23T07:53:31;100308.00;;;32.30
45850;BMP180;10739;52.198;20.908;2022-07-23T07:55:57;100307.00;;;32.60
45850;BMP180;10739;52.198;20.908;2022-07-23T07:58:24;100323.00;;;31.70
45850;BMP180;10739;52.198;20.908;2022-07-23T08:00:50;100323.00;;;32.30
45850;BMP180;10739;52.198;20.908;2022-07-23T08:03:17;100323.00;;;32.30
45850;BMP180;10739;52.198;20.908;2022-07-23T08:05:43;100330.00;;;31.90
45850;BMP180;10739;52.198;20.908;2022-07-23T08:08:10;100332.00;;;31.60
45850;BMP180;10739;52.198;20.908;2022-07-23T08:10:41;100323.00;;;31.90
45850;BMP180;10739;52.198;20.908;2022-07-23T08:13:07;100323.00;;;32.30
45850;BMP180;10739;52.198;20.908;2022-07-23T08:15:34;100321.00;;;32.40
45850;BMP180;10739;52.198;20.908;2022-07-23T08:18:00;100319.00;;;32.50
45850;BMP180;10739;52.198;20.908;2022-07-23T08:20:27;100332.00;;;32.80
45850;BMP180;10739;52.198;20.908;2022-07-23T08:23:02;100319.00;;;32.80
45850;BMP180;10739;52.198;20.908;2022-07-23T08:25:32;100334.00;;;32.00
45850;BMP180;10739;52.198;20.908;2022-07-23T08:28:01;100323.00;;;32.20
45850;BMP180;10739;52.198;20.908;2022-07-23T08:30:29;100323.00;;;32.20
45850;BMP180;10739;52.198;20.908;2022-07-23T08:33:09;100335.00;;;32.40
45850;BMP180;10739;52.198;20.908;2022-07-23T08:35:50;100324.00;;;32.70
45850;BMP180;10739;52.198;20.908;2022-07-23T08:38:20;100321.00;;;33.30
45850;BMP180;10739;52.198;20.908;2022-07-23T08:40:50;100326.00;;;32.90
45850;BMP180;10739;52.198;20.908;2022-07-23T08:43:22;100332.00;;;32.50
45850;BMP180;10739;52.198;20.908;2022-07-23T08:45:52;100331.00;;;32.90
45850;BMP180;10739;52.198;20.908;2022-07-23T08:48:21;100330.00;;;31.90
45850;BMP180;10739;52.198;20.908;2022-07-23T08:50:58;100333.00;;;32.50
45850;BMP180;10739;52.198;20.908;2022-07-23T08:53:27;100332.00;;;33.30
45850;BMP180;10739;52.198;20.908;2022-07-23T08:55:57;100326.00;;;32.80
45850;BMP180;10739;52.198;20.908;2022-07-23T08:58:25;100321.00;;;33.50
45850;BMP180;10739;52.198;20.908;2022-07-23T09:00:51;100324.00;;;33.70
45850;BMP180;10739;52.198;20.908;2022-07-23T09:03:27;100316.00;;;34.00
45850;BMP180;10739;52.198;20.908;2022-07-23T09:05:56;100321.00;;;34.40
45850;BMP180;10739;52.198;20.908;2022-07-23T09:08:46;100314.00;;;34.60
45850;BMP180;10739;52.198;20.908;2022-07-23T09:11:16;100320.00;;;34.20
45850;BMP180;10739;52.198;20.908;2022-07-23T09:13:50;100317.00;;;33.90
45850;BMP180;10739;52.198;20.908;2022-07-23T09:16:31;100321.00;;;33.60
45850;BMP180;10739;52.198;20.908;2022-07-23T09:19:03;100315.00;;;34.00
45850;BMP180;10739;52.198;20.908;2022-07-23T09:21:36;100312.00;;;34.00
45850;BMP180;10739;52.198;20.908;2022-07-23T09:24:10;100309.00;;;33.40
45850;BMP180;10739;52.198;20.908;2022-07-23T09:26:46;100314.00;;;33.60
45850;BMP180;10739;52.198;20.908;2022-07-23T09:29:23;100313.00;;;34.30
45850;BMP180;10739;52.198;20.908;2022-07-23T09:31:53;100311.00;;;34.30
45850;BMP180;10739;52.198;20.908;2022-07-23T09:34:23;100312.00;;;34.30
45850;BMP180;10739;52.198;20.908;2022-07-23T09:36:54;100306.00;;;33.90
45850;BMP180;10739;52.198;20.908;2022-07-23T09:39:32;100299.00;;;34.80
45850;BMP180;10739;52.198;20.908;2022-07-23T09:42:14;100311.00;;;35.60
45850;BMP180;10739;52.198;20.908;2022-07-23T09:44:44;100299.00;;;36.30
45850;BMP180;10739;52.198;20.908;2022-07-23T09:47:11;100292.00;;;36.30
45850;BMP180;10739;52.198;20.908;2022-07-23T09:49:37;100293.00;;;35.80
45850;BMP180;10739;52.198;20.908;2022-07-23T09:52:05;100295.00;;;35.30
45850;BMP180;10739;52.198;20.908;2022-07-23T09:54:39;100288.00;;;35.50
45850;BMP180;10739;52.198;20.908;2022-07-23T09:57:12;100292.00;;;35.90
45850;BMP180;10739;52.198;20.908;2022-07-23T09:59:44;100293.00;;;36.20
45850;BMP180;10739;52.198;20.908;2022-07-23T10:02:13;100288.00;;;36.00
45850;BMP180;10739;52.198;20.908;2022-07-23T10:04:41;100280.00;;;36.60
45850;BMP180;10739;52.198;20.908;2022-07-23T10:07:08;100277.00;;;37.30
45850;BMP180;10739;52.198;20.908;2022-07-23T10:09:39;100283.00;;;38.20
45850;BMP180;10739;52.198;20.908;2022-07-23T10:12:12;100287.00;;;39.00
45850;BMP180;10739;52.198;20.908;2022-07-23T10:14:57;100282.00;;;39.10
45850;BMP180;10739;52.198;20.908;2022-07-23T10:17:24;100280.00;;;39.60
45850;BMP180;10739;52.198;20.908;2022-07-23T10:19:50;100281.00;;;39.80
45850;BMP180;10739;52.198;20.908;2022-07-23T10:28:50;100277.00;;;39.40
45850;BMP180;10739;52.198;20.908;2022-07-23T10:37:36;100278.00;;;38.80
45850;BMP180;10739;52.198;20.908;2022-07-23T10:40:20;100282.00;;;39.70
45850;BMP180;10739;52.198;20.908;2022-07-23T10:42:50;100274.00;;;39.20
45850;BMP180;10739;52.198;20.908;2022-07-23T10:47:52;100275.00;;;39.70
45850;BMP180;10739;52.198;20.908;2022-07-23T10:50:24;100278.00;;;39.40
45850;BMP180;10739;52.198;20.908;2022-07-23T10:58:04;100273.00;;;41.10
45850;BMP180;10739;52.198;20.908;2022-07-23T11:00:33;100272.00;;;41.40
45850;BMP180;10739;52.198;20.908;2022-07-23T11:03:04;100275.00;;;41.80
45850;BMP180;10739;52.198;20.908;2022-07-23T11:05:43;100269.00;;;41.00
45850;BMP180;10739;52.198;20.908;2022-07-23T11:08:18;100265.00;;;41.20
45850;BMP180;10739;52.198;20.908;2022-07-23T11:10:55;100270.00;;;41.90
45850;BMP180;10739;52.198;20.908;2022-07-23T11:13:46;100274.00;;;42.10
45850;BMP180;10739;52.198;20.908;2022-07-23T11:16:24;100266.00;;;42.80
45850;BMP180;10739;52.198;20.908;2022-07-23T11:18:56;100268.00;;;42.60
45850;BMP180;10739;52.198;20.908;2022-07-23T11:24:04;100273.00;;;41.10
45850;BMP180;10739;52.198;20.908;2022-07-23T11:32:01;100271.00;;;42.10
45850;BMP180;10739;52.198;20.908;2022-07-23T11:37:05;100276.00;;;42.50
45850;BMP180;10739;52.198;20.908;2022-07-23T11:39:34;100265.00;;;42.40
45850;BMP180;10739;52.198;20.908;2022-07-23T11:42:03;100259.00;;;42.20
45850;BMP180;10739;52.198;20.908;2022-07-23T11:44:37;100256.00;;;40.70
45850;BMP180;10739;52.198;20.908;2022-07-23T11:47:10;100261.00;;;42.10
45850;BMP180;10739;52.198;20.908;2022-07-23T11:49:56;100259.00;;;42.70
45850;BMP180;10739;52.198;20.908;2022-07-23T11:52:23;100254.00;;;43.00
45850;BMP180;10739;52.198;20.908;2022-07-23T11:54:56;100254.00;;;42.80
45850;BMP180;10739;52.198;20.908;2022-07-23T11:57:33;100241.00;;;43.60
45850;BMP180;10739;52.198;20.908;2022-07-23T12:00:12;100247.00;;;43.30
45850;BMP180;10739;52.198;20.908;2022-07-23T12:02:46;100244.00;;;42.60
45850;BMP180;10739;52.198;20.908;2022-07-23T12:05:32;100246.00;;;42.50
45850;BMP180;10739;52.198;20.908;2022-07-23T12:08:00;100236.00;;;42.90
45850;BMP180;10739;52.198;20.908;2022-07-23T12:10:34;100241.00;;;41.70
45850;BMP180;10739;52.198;20.908;2022-07-23T12:13:21;100236.00;;;41.70
45850;BMP180;10739;52.198;20.908;2022-07-23T12:15:56;100231.00;;;42.40
45850;BMP180;10739;52.198;20.908;2022-07-23T12:18:25;100222.00;;;42.70
45850;BMP180;10739;52.198;20.908;2022-07-23T12:20:55;100223.00;;;41.90
45850;BMP180;10739;52.198;20.908;2022-07-23T12:23:27;100221.00;;;41.70
45850;BMP180;10739;52.198;20.908;2022-07-23T12:25:54;100218.00;;;41.60
45850;BMP180;10739;52.198;20.908;2022-07-23T12:28:32;100213.00;;;41.50
45850;BMP180;10739;52.198;20.908;2022-07-23T12:30:59;100215.00;;;42.30
45850;BMP180;10739;52.198;20.908;2022-07-23T12:33:31;100210.00;;;41.80
45850;BMP180;10739;52.198;20.908;2022-07-23T12:36:07;100207.00;;;41.50
45850;BMP180;10739;52.198;20.908;2022-07-23T12:38:43;100203.00;;;41.30
45850;BMP180;10739;52.198;20.908;2022-07-23T12:41:10;100194.00;;;41.80
45850;BMP180;10739;52.198;20.908;2022-07-23T12:43:39;100198.00;;;42.20
45850;BMP180;10739;52.198;20.908;2022-07-23T12:46:16;100192.00;;;43.10
45850;BMP180;10739;52.198;20.908;2022-07-23T12:51:27;100179.00;;;42.80
45850;BMP180;10739;52.198;20.908;2022-07-23T12:54:09;100179.00;;;43.10
45850;BMP180;10739;52.198;20.908;2022-07-23T12:56:38;100171.00;;;43.20
45850;BMP180;10739;52.198;20.908;2022-07-23T12:59:13;100172.00;;;42.20
45850;BMP180;10739;52.198;20.908;2022-07-23T13:01:54;100166.00;;;42.10
45850;BMP180;10739;52.198;20.908;2022-07-23T13:04:22;100162.00;;;42.10
45850;BMP180;10739;52.198;20.908;2022-07-23T13:06:53;100159.00;;;41.80
45850;BMP180;10739;52.198;20.908;2022-07-23T13:09:26;100156.00;;;41.40
45850;BMP180;10739;52.198;20.908;2022-07-23T13:11:56;100160.00;;;41.40
45850;BMP180;10739;52.198;20.908;2022-07-23T13:14:24;100162.00;;;40.60
45850;BMP180;10739;52.198;20.908;2022-07-23T13:16:52;100154.00;;;40.30
45850;BMP180;10739;52.198;20.908;2022-07-23T13:19:19;100162.00;;;39.70
45850;BMP180;10739;52.198;20.908;2022-07-23T13:21:48;100170.00;;;39.70
45850;BMP180;10739;52.198;20.908;2022-07-23T13:24:15;100159.00;;;39.10
45850;BMP180;10739;52.198;20.908;2022-07-23T13:26:42;100162.00;;;39.00
45850;BMP180;10739;52.198;20.908;2022-07-23T13:29:08;100162.00;;;38.70
45850;BMP180;10739;52.198;20.908;2022-07-23T13:31:37;100165.00;;;38.50
45850;BMP180;10739;52.198;20.908;2022-07-23T13:34:04;100158.00;;;38.80
45850;BMP180;10739;52.198;20.908;2022-07-23T13:36:30;100168.00;;;38.10
45850;BMP180;10739;52.198;20.908;2022-07-23T13:38:56;100158.00;;;39.10
45850;BMP180;10739;52.198;20.908;2022-07-23T13:41:23;100159.00;;;39.50
45850;BMP180;10739;52.198;20.908;2022-07-23T13:43:51;100147.00;;;40.00
45850;BMP180;10739;52.198;20.908;2022-07-23T13:46:17;100142.00;;;40.30
45850;BMP180;10739;52.198;20.908;2022-07-23T13:48:43;100149.00;;;40.10
45850;BMP180;10739;52.198;20.908;2022-07-23T13:51:10;100147.00;;;39.30
45850;BMP180;10739;52.198;20.908;2022-07-23T13:53:36;100152.00;;;38.60
45850;BMP180;10739;52.198;20.908;2022-07-23T13:56:02;100154.00;;;38.80
45850;BMP180;10739;52.198;20.908;2022-07-23T13:58:29;100157.00;;;38.10
45850;BMP180;10739;52.198;20.908;2022-07-23T14:01:00;100158.00;;;36.70
45850;BMP180;10739;52.198;20.908;2022-07-23T14:03:26;100160.00;;;36.40
45850;BMP180;10739;52.198;20.908;2022-07-23T14:05:53;100165.00;;;36.10
45850;BMP180;10739;52.198;20.908;2022-07-23T14:08:20;100153.00;;;36.10
45850;BMP180;10739;52.198;20.908;2022-07-23T14:10:46;100147.00;;;36.30
45850;BMP180;10739;52.198;20.908;2022-07-23T14:13:12;100146.00;;;36.10
45850;BMP180;10739;52.198;20.908;2022-07-23T14:15:39;100140.00;;;35.90
45850;BMP180;10739;52.198;20.908;2022-07-23T14:18:06;100136.00;;;35.90
45850;BMP180;10739;52.198;20.908;2022-07-23T14:20:33;100146.00;;;35.90
45850;BMP180;10739;52.198;20.908;2022-07-23T14:23:00;100148.00;;;35.90
45850;BMP180;10739;52.198;20.908;2022-07-23T14:25:27;100158.00;;;35.90